createdAt,value
2019-04-11T00:07:24.946Z,955
2019-04-11T00:17:28.432Z,954.9
2019-04-11T00:27:33.056Z,955.2
2019-04-11T00:37:37.330Z,955.3
2019-04-11T00:47:41.811Z,955
2019-04-11T00:57:45.640Z,955.2
2019-04-11T01:07:49.473Z,955.3
2019-04-11T01:17:54.144Z,955.2
2019-04-11T01:27:58.739Z,955
2019-04-11T01:38:02.250Z,955.4
2019-04-11T01:58:14.598Z,955.3
2019-04-11T02:08:18.026Z,955.3
2019-04-11T02:18:21.777Z,955.7
2019-04-11T02:28:25.235Z,955.8
2019-04-11T02:38:34.750Z,956.2
2019-04-11T02:48:44.789Z,956
2019-04-11T02:58:52.350Z,956.4
2019-04-11T03:08:59.559Z,956.2
2019-04-11T03:20:12.814Z,956.4
2019-04-11T03:32:01.773Z,956
2019-04-11T03:43:24.010Z,956.4
2019-04-11T03:53:37.485Z,956.4
2019-04-11T04:03:47.505Z,956.4
2019-04-11T04:13:56.507Z,956.8
2019-04-11T04:24:06.118Z,956.7
2019-04-11T04:34:12.004Z,957
2019-04-11T04:44:24.640Z,956.8
2019-04-11T04:54:36.597Z,957.5
2019-04-11T05:04:40.743Z,957.5
2019-04-11T05:14:47.573Z,957.8
2019-04-11T05:24:52.020Z,957.8
2019-04-11T05:34:55.556Z,957.7
2019-04-11T05:44:59.510Z,957.8
2019-04-11T05:55:03.380Z,957.8
2019-04-11T06:05:07.214Z,957.7
2019-04-11T06:15:11.899Z,958
2019-04-11T06:25:19.592Z,957.9
2019-04-11T06:35:24.335Z,958
2019-04-11T06:45:27.792Z,958.3
2019-04-11T06:55:31.202Z,958.2
2019-04-11T07:05:35.474Z,958.2
2019-04-11T07:15:40.088Z,958.3
2019-04-11T07:25:43.529Z,958.1
2019-04-11T07:35:48.049Z,958.3
2019-04-11T07:45:51.559Z,958.3
2019-04-11T07:55:55.762Z,958.7
2019-04-11T08:05:59.188Z,958.8
2019-04-11T08:16:02.625Z,959
2019-04-11T08:26:06.452Z,959.2
2019-04-11T08:36:09.882Z,958.8
2019-04-11T08:46:13.320Z,958.9
2019-04-11T08:56:17.060Z,958.9
2019-04-11T09:06:21.182Z,959.1
2019-04-11T09:16:25.928Z,959.2
2019-04-11T09:26:29.371Z,959
2019-04-11T09:36:32.824Z,959.3
2019-04-11T09:46:36.944Z,959
2019-04-11T09:56:40.363Z,959
2019-04-11T10:06:44.910Z,958.6
2019-04-11T10:16:48.979Z,958.6
2019-04-11T10:26:52.451Z,958.9
2019-04-11T10:36:56.160Z,958.8
2019-04-11T10:47:00.185Z,958.1
2019-04-11T10:57:03.824Z,958.2
2019-04-11T11:07:11.356Z,957.8
2019-04-11T11:18:53.542Z,957.7
2019-04-11T11:29:18.824Z,957.4
2019-04-11T11:39:22.997Z,964.2
2019-04-11T11:50:03.162Z,964.3
2019-04-11T12:00:09.216Z,964.2
2019-04-11T12:10:13.723Z,964
2019-04-11T12:20:18.467Z,963.9
2019-04-11T12:30:34.362Z,963.9
2019-04-11T12:40:38.834Z,964.2
2019-04-11T12:50:42.268Z,963.8
2019-04-11T13:00:45.729Z,963.8
2019-04-11T13:10:49.178Z,963.7
2019-04-11T13:20:52.616Z,963.9
2019-04-11T13:30:58.054Z,963.7
2019-04-11T13:41:01.518Z,963.7
2019-04-11T13:51:07.702Z,963.8
2019-04-11T14:01:11.124Z,963.5
2019-04-11T14:11:14.565Z,963.6
2019-04-11T14:21:18.005Z,963.3
2019-04-11T14:31:22.997Z,963.5
2019-04-11T14:41:26.443Z,963.5
2019-04-11T14:51:29.889Z,963.5
2019-04-11T15:01:33.334Z,963.4
2019-04-11T15:11:36.780Z,963.4
2019-04-11T15:21:40.231Z,963.5
2019-04-11T15:31:43.649Z,963.5
2019-04-11T15:41:47.097Z,963.7
2019-04-11T15:51:50.559Z,963.4
2019-04-11T16:01:54.018Z,963.2
2019-04-11T16:11:57.471Z,963.5
2019-04-11T16:22:00.905Z,963.5
2019-04-11T16:32:04.364Z,963.6
2019-04-11T16:42:07.776Z,963.7
2019-04-11T16:52:11.221Z,963.8
2019-04-11T17:02:14.667Z,964.1
2019-04-11T17:12:18.105Z,964.2
2019-04-11T17:22:21.561Z,964.4
2019-04-11T17:32:26.878Z,964.5
2019-04-11T17:42:30.293Z,964.8
2019-04-11T17:52:33.690Z,965.3
2019-04-11T18:02:42.281Z,965.3
2019-04-11T18:12:45.729Z,965.4
2019-04-11T18:22:50.769Z,965.7
2019-04-11T18:32:54.203Z,965.6
2019-04-11T18:42:57.636Z,966.2
2019-04-11T18:53:01.079Z,965.9
2019-04-11T19:03:04.522Z,966.2
2019-04-11T19:13:07.975Z,959.5
2019-04-11T19:23:11.444Z,959.3
2019-04-11T19:33:14.868Z,959.4
2019-04-11T19:43:19.935Z,959.4
2019-04-11T19:53:23.325Z,959.6
2019-04-11T20:03:26.793Z,959.9
2019-04-11T20:13:33.092Z,960.1
2019-04-11T20:23:36.519Z,959.9
2019-04-11T20:33:39.942Z,960.1
2019-04-11T20:43:43.654Z,959.8
2019-04-11T20:53:47.076Z,959.8
2019-04-11T21:03:50.522Z,960.5
2019-04-11T21:13:53.967Z,960.2
2019-04-11T21:24:01.285Z,960.6
2019-04-11T21:34:04.744Z,961.2
2019-04-11T21:44:08.174Z,961.2
2019-04-11T21:54:15.871Z,961.3
2019-04-11T22:04:19.317Z,961.3
2019-04-11T22:14:22.730Z,961.6
2019-04-11T22:24:26.188Z,961.8
2019-04-11T22:34:29.647Z,962
2019-04-11T22:44:33.094Z,962.5
2019-04-11T22:54:36.520Z,962.5
2019-04-11T23:04:40.004Z,962.6
2019-04-11T23:14:46.512Z,962.8
2019-04-11T23:24:49.969Z,962.8
2019-04-11T23:34:53.707Z,962.5
2019-04-11T23:44:57.199Z,962.9
2019-04-11T23:55:01.321Z,962.2
